Aviation Digital Data Service (ADDS)

Output produced by METARs form (0612 UTC 30 August 2014)
found at http://www.aviationweather.gov/adds/metars/
 
KCXY 300556Z AUTO 16007KT 10SM CLR 18/13 A3023 RMK AO2 SLP235 T01780133 10206 20167 51005
KCXY 300456Z AUTO 17008KT 10SM CLR 18/13 A3022 RMK AO2 SLP234 T01830128 402440111
KCXY 300356Z AUTO 16006KT 10SM CLR 18/12 A3022 RMK AO2 SLP232 T01780122
KCXY 300256Z AUTO 10006KT 10SM CLR 18/12 A3021 RMK AO2 SLP229 T01780122 51015
KCXY 300156Z AUTO 18006KT 10SM CLR 19/12 A3020 RMK AO2 SLP226 T01940117
KCXY 300056Z AUTO 15005KT 10SM CLR 19/12 A3019 RMK AO2 SLP222 T01940122
KCXY 292356Z 00000KT 10SM CLR 21/12 A3017 RMK AO2 SLP216 T02060122 10244 20206 51003
KCXY 292256Z 13006KT 10SM CLR 23/10 A3017 RMK AO2 SLP215 T02330100
KCXY 292156Z 10007KT 10SM CLR 24/11 A3016 RMK AO2 SLP214 T02390106
KCXY 292056Z 10007KT 10SM CLR 24/11 A3016 RMK AO2 SLP213 T02390106 56010
KCXY 291956Z 09004KT 10SM CLR 24/11 A3016 RMK AO2 SLP214 T02390106
KCXY 291856Z 04005KT 10SM CLR 24/10 A3018 RMK AO2 SLP219 T02390100
KCXY 291756Z VRB04KT 10SM CLR 23/09 A3019 RMK AO2 SLP223 T02280094 10233 20133 56013
KCXY 291656Z VRB03KT 10SM FEW045 22/08 A3020 RMK AO2 SLP225 T02170078
KCXY 291556Z VRB03KT 10SM FEW048 21/09 A3022 RMK AO2 SLP232 T02110094
KCXY 291456Z VRB03KT 10SM CLR 21/11 A3023 RMK AO2 SLP235 T02060106 53005
KCXY 291356Z VRB03KT 10SM CLR 19/12 A3022 RMK AO2 SLP234 T01890117
KCXY 291256Z 26003KT 10SM CLR 16/12 A3021 RMK AO2 SLP231 T01610117
KCXY 291156Z 26003KT 10SM CLR 13/11 A3021 RMK AO2 SLP231 T01330111 10139 20111 51021
KCXY 291056Z 25004KT 10SM CLR 12/09 A3019 RMK AO2 SLP224 T01170094
KCXY 290956Z AUTO 27004KT 10SM CLR 12/09 A3017 RMK AO2 SLP218 T01170094
KCXY 290856Z AUTO 24004KT 10SM CLR 12/10 A3015 RMK AO2 SLP210 T01170100 53003
KCXY 290756Z AUTO 27005KT 10SM CLR 13/10 A3014 RMK AO2 SLP205 T01280100
KCXY 290656Z AUTO 00000KT 10SM CLR 13/11 A3013 RMK AO2 SLP203 T01330106
KCXY 290556Z AUTO 24003KT 10SM CLR 13/10 A3014 RMK AO2 SLP207 T01330100 10211 20133 51013
KCXY 290456Z AUTO 04004KT 10SM CLR 18/08 A3014 RMK AO2 SLP205 T01830083 402560172
KCXY 290356Z AUTO 36005KT 10SM CLR 19/09 A3013 RMK AO2 SLP202 T01940089
KCXY 290256Z AUTO 35005KT 10SM CLR 21/09 A3010 RMK AO2 SLP193 T02060094 51026
KCXY 290156Z AUTO 01005KT 10SM CLR 21/11 A3008 RMK AO2 SLP186 T02110111
KCXY 290056Z AUTO 25004KT 10SM CLR 18/13 A3006 RMK AO2 SLP177 T01830128
KCXY 282356Z 23004KT 10SM CLR 21/12 A3002 RMK AO2 SLP166 T02060122 10256 20200 53012
KCXY 282256Z 28006KT 10SM CLR 23/11 A3001 RMK AO2 SLP160 T02280106
KCXY 282156Z 30010KT 10SM CLR 24/11 A3001 RMK AO2 SLP160 T02440106
KCXY 282056Z 32010G20KT 10SM FEW055 25/10 A2999 RMK AO2 SLP155 T02500100 55002
KCXY 281956Z 31009G16KT 10SM SCT050 26/12 A2998 RMK AO2 SLP152 T02560117
KCXY 281856Z 32012G17KT 10SM SCT050 26/11 A2998 RMK AO2 SLP151 T02560111